createdAt,value
2022-12-24T00:01:37.817Z,2.89
2022-12-24T00:04:06.575Z,2.95
2022-12-24T00:06:35.013Z,2.95
2022-12-24T00:09:03.634Z,2.90
2022-12-24T00:11:32.228Z,2.87
2022-12-24T00:14:00.816Z,2.85
2022-12-24T00:16:29.085Z,2.84
2022-12-24T00:18:57.596Z,2.80
2022-12-24T00:21:25.933Z,2.82
2022-12-24T00:23:54.310Z,2.83
2022-12-24T00:26:22.843Z,2.85
2022-12-24T00:28:51.070Z,2.85
2022-12-24T00:31:19.590Z,2.86
2022-12-24T00:33:48.838Z,2.86
2022-12-24T00:36:18.620Z,2.91
2022-12-24T00:38:47.716Z,2.86
2022-12-24T00:41:26.124Z,2.85
2022-12-24T00:43:56.449Z,2.85
2022-12-24T00:46:26.468Z,2.85
2022-12-24T00:48:55.549Z,2.88
2022-12-24T00:51:24.534Z,2.85
2022-12-24T00:53:53.427Z,2.85
2022-12-24T00:56:21.947Z,2.85
2022-12-24T00:58:49.941Z,2.88
2022-12-24T01:01:19.090Z,2.86
2022-12-24T01:03:48.053Z,2.88
2022-12-24T01:06:19.475Z,2.87
2022-12-24T01:08:51.862Z,2.88
2022-12-24T01:11:20.170Z,2.93
2022-12-24T01:13:48.968Z,2.94
2022-12-24T01:16:20.273Z,2.93
2022-12-24T01:18:48.918Z,2.95
2022-12-24T01:21:17.574Z,2.89
2022-12-24T01:23:45.764Z,2.93
2022-12-24T01:26:14.353Z,2.99
2022-12-24T01:28:42.554Z,2.99
2022-12-24T01:31:13.052Z,2.97
2022-12-24T01:33:42.779Z,2.96
2022-12-24T01:36:11.773Z,3.00
2022-12-24T01:38:40.737Z,2.93
2022-12-24T01:41:37.337Z,2.99
2022-12-24T01:44:33.199Z,3.00
2022-12-24T01:47:29.874Z,2.98
2022-12-24T01:50:15.229Z,2.92
2022-12-24T01:52:44.529Z,2.88
2022-12-24T01:55:17.751Z,2.88
2022-12-24T01:57:53.056Z,2.86
2022-12-24T02:00:22.441Z,2.86
2022-12-24T02:02:54.172Z,2.92
2022-12-24T02:05:34.988Z,2.89
2022-12-24T02:08:05.219Z,2.90
2022-12-24T02:10:33.340Z,2.92
2022-12-24T02:13:03.192Z,2.91
2022-12-24T02:15:45.291Z,2.92
2022-12-24T02:18:26.603Z,2.93
2022-12-24T02:21:23.299Z,2.95
2022-12-24T02:24:43.337Z,2.97
2022-12-24T02:27:31.394Z,3.00
2022-12-24T02:30:18.725Z,3.01
2022-12-24T02:32:47.326Z,3.03
2022-12-24T02:35:30.678Z,3.00
2022-12-24T02:38:12.088Z,2.98
2022-12-24T02:40:46.818Z,2.96
2022-12-24T02:43:17.294Z,2.96
2022-12-24T02:45:55.269Z,2.97
2022-12-24T02:48:29.656Z,2.99
2022-12-24T02:51:02.491Z,3.02
2022-12-24T02:53:32.145Z,3.03
2022-12-24T02:56:19.113Z,3.11
2022-12-24T02:59:08.826Z,3.22
2022-12-24T03:01:53.095Z,3.31
2022-12-24T03:04:47.194Z,3.31
2022-12-24T03:07:25.151Z,3.33
2022-12-24T03:10:36.048Z,3.23
2022-12-24T03:13:15.044Z,3.18
2022-12-24T03:15:45.991Z,3.23
2022-12-24T03:18:18.250Z,3.19
2022-12-24T03:21:01.904Z,3.18
2022-12-24T03:23:30.036Z,3.13
2022-12-24T03:26:01.734Z,3.08
2022-12-24T03:28:30.412Z,3.05
2022-12-24T03:31:03.337Z,3.08
2022-12-24T03:33:31.821Z,3.06
2022-12-24T03:36:00.206Z,2.99
2022-12-24T03:38:28.456Z,2.93
2022-12-24T03:40:57.430Z,2.92
2022-12-24T03:43:25.870Z,2.95
2022-12-24T03:45:53.969Z,3.51
2022-12-24T03:48:26.002Z,3.83
2022-12-24T03:50:57.716Z,4.04
2022-12-24T03:53:25.957Z,4.27
2022-12-24T03:55:54.021Z,4.52
2022-12-24T03:58:22.380Z,4.67
2022-12-24T04:00:54.354Z,4.81
2022-12-24T04:03:23.013Z,5.02
2022-12-24T04:06:05.180Z,5.13
2022-12-24T04:08:34.323Z,5.32
2022-12-24T04:11:09.509Z,5.32
2022-12-24T04:13:38.583Z,5.25
2022-12-24T04:16:09.844Z,5.34
2022-12-24T04:18:38.790Z,5.36
2022-12-24T04:21:09.420Z,5.55
2022-12-24T04:23:38.930Z,5.58
2022-12-24T04:26:10.414Z,5.57
2022-12-24T04:28:40.138Z,5.64
2022-12-24T04:31:12.269Z,5.67
2022-12-24T04:33:40.689Z,5.68
2022-12-24T04:36:13.121Z,5.68
2022-12-24T04:38:41.924Z,5.74
2022-12-24T04:41:23.768Z,5.61
2022-12-24T04:43:54.751Z,5.56
2022-12-24T04:46:26.443Z,5.69
2022-12-24T04:48:54.945Z,5.66
2022-12-24T04:51:24.561Z,5.73
2022-12-24T04:53:53.436Z,5.85
2022-12-24T04:56:27.386Z,5.83
2022-12-24T04:58:56.522Z,5.81
2022-12-24T05:01:28.178Z,5.86
2022-12-24T05:03:58.232Z,5.86
2022-12-24T05:06:30.369Z,5.74
2022-12-24T05:08:59.418Z,5.73
2022-12-24T05:11:27.892Z,5.83
2022-12-24T05:13:56.346Z,5.88
2022-12-24T05:16:25.235Z,5.77
2022-12-24T05:18:53.607Z,5.66
2022-12-24T05:21:24.425Z,5.57
2022-12-24T05:24:12.584Z,5.43
2022-12-24T05:26:51.675Z,5.31
2022-12-24T05:29:20.527Z,5.13
2022-12-24T05:31:48.799Z,4.91
2022-12-24T05:34:17.217Z,4.71
2022-12-24T05:36:46.070Z,4.47
2022-12-24T05:39:18.169Z,4.26
2022-12-24T05:41:47.362Z,4.16
2022-12-24T05:44:16.343Z,4.12
2022-12-24T05:46:45.011Z,4.11
2022-12-24T05:49:13.878Z,4.24
2022-12-24T05:51:42.147Z,4.21
2022-12-24T05:54:10.848Z,4.31
2022-12-24T05:56:39.363Z,4.56
2022-12-24T05:59:07.445Z,4.62
2022-12-24T06:01:35.985Z,4.45
2022-12-24T06:04:05.023Z,4.39
2022-12-24T06:06:33.321Z,4.40
2022-12-24T06:09:03.412Z,4.28
2022-12-24T06:11:31.851Z,4.00
2022-12-24T06:13:59.994Z,3.98
2022-12-24T06:16:28.481Z,3.85
2022-12-24T06:18:57.166Z,3.80
2022-12-24T06:21:25.614Z,3.72
2022-12-24T06:23:53.952Z,3.82
2022-12-24T06:26:23.408Z,3.71
2022-12-24T06:28:52.338Z,3.70
2022-12-24T06:31:23.072Z,3.64
2022-12-24T06:33:52.797Z,3.68
2022-12-24T06:36:23.606Z,3.77
2022-12-24T06:38:53.961Z,3.95
2022-12-24T06:41:22.875Z,4.04
2022-12-24T06:43:52.685Z,3.87
2022-12-24T06:46:21.537Z,3.95
2022-12-24T06:48:49.960Z,3.88
2022-12-24T06:51:20.043Z,3.87
2022-12-24T06:53:50.843Z,3.96
2022-12-24T06:56:20.626Z,3.96
2022-12-24T06:58:49.180Z,3.88
2022-12-24T07:01:19.547Z,3.81
2022-12-24T07:03:48.626Z,3.78
2022-12-24T07:06:35.575Z,3.80
2022-12-24T07:09:04.037Z,3.93
2022-12-24T07:11:32.391Z,3.79
2022-12-24T07:14:00.633Z,3.75
2022-12-24T07:16:29.288Z,3.84
2022-12-24T07:18:57.885Z,3.83
2022-12-24T07:21:26.413Z,3.87
2022-12-24T07:23:54.713Z,3.89
2022-12-24T07:26:23.147Z,3.97
2022-12-24T07:28:51.520Z,4.04
2022-12-24T07:31:19.869Z,4.03
2022-12-24T07:33:49.016Z,4.16
2022-12-24T07:36:21.871Z,4.25
2022-12-24T07:38:51.208Z,4.29
2022-12-24T07:41:19.322Z,4.42
2022-12-24T07:43:47.613Z,4.54
2022-12-24T07:46:16.266Z,4.70
2022-12-24T07:48:44.541Z,4.65
2022-12-24T07:51:12.793Z,4.74
2022-12-24T07:53:47.722Z,4.74
2022-12-24T07:56:15.953Z,4.82
2022-12-24T07:58:44.402Z,4.73
2022-12-24T08:01:12.764Z,4.66
2022-12-24T08:03:41.387Z,4.74
2022-12-24T08:06:10.689Z,4.81
2022-12-24T08:08:38.907Z,5.05
2022-12-24T08:11:07.659Z,5.06
2022-12-24T08:13:36.257Z,5.20
2022-12-24T08:16:04.870Z,5.43
2022-12-24T08:18:33.725Z,5.67
2022-12-24T08:21:01.963Z,6.24
2022-12-24T08:23:30.271Z,7.03
2022-12-24T08:25:58.823Z,7.35
2022-12-24T08:28:26.914Z,7.79
2022-12-24T08:30:59.009Z,7.88
2022-12-24T08:33:27.604Z,8.12
2022-12-24T08:35:56.417Z,8.08
2022-12-24T08:38:24.953Z,8.41
2022-12-24T08:40:55.119Z,8.45
2022-12-24T08:43:26.052Z,8.71
2022-12-24T08:45:54.797Z,8.64
2022-12-24T08:48:22.938Z,8.73
2022-12-24T08:50:51.309Z,8.73
2022-12-24T08:53:19.835Z,8.76
2022-12-24T08:55:55.452Z,8.87
2022-12-24T08:58:24.612Z,8.80
2022-12-24T09:00:53.326Z,8.84
2022-12-24T09:03:27.327Z,9.21
2022-12-24T09:05:56.820Z,9.28
2022-12-24T09:08:25.045Z,9.11
2022-12-24T09:10:53.230Z,9.21
2022-12-24T09:13:21.823Z,9.52
2022-12-24T09:15:54.961Z,9.42
2022-12-24T09:18:28.428Z,9.34
2022-12-24T09:21:01.493Z,9.56
2022-12-24T09:23:30.678Z,9.71
2022-12-24T09:25:58.926Z,10.12
2022-12-24T09:28:27.272Z,9.95
2022-12-24T09:31:00.480Z,9.91
2022-12-24T09:33:31.310Z,10.19
2022-12-24T09:36:20.524Z,10.19
2022-12-24T09:38:49.179Z,10.51
2022-12-24T09:41:29.805Z,10.40
2022-12-24T09:44:26.056Z,10.57
2022-12-24T09:46:55.191Z,10.51
2022-12-24T09:49:43.924Z,10.45
2022-12-24T09:52:23.233Z,10.75
2022-12-24T09:55:27.833Z,10.77
2022-12-24T09:57:58.822Z,10.70
2022-12-24T10:00:31.282Z,10.77
2022-12-24T10:03:00.181Z,10.78
2022-12-24T10:05:41.099Z,10.61
2022-12-24T10:08:09.570Z,10.61
2022-12-24T10:11:02.819Z,10.65
2022-12-24T10:13:49.788Z,10.62
2022-12-24T10:16:28.874Z,10.42
2022-12-24T10:19:17.417Z,10.28
2022-12-24T10:22:24.991Z,10.31
2022-12-24T10:25:04.463Z,10.30
2022-12-24T10:27:39.898Z,10.38
2022-12-24T10:30:20.547Z,10.53
2022-12-24T10:32:50.830Z,10.77
2022-12-24T10:35:27.933Z,10.70
2022-12-24T10:37:58.093Z,10.64
2022-12-24T10:40:26.524Z,10.57
2022-12-24T10:42:54.706Z,10.57
2022-12-24T10:45:26.072Z,10.56
2022-12-24T10:47:58.973Z,10.66
2022-12-24T10:50:35.722Z,10.81
2022-12-24T10:53:31.409Z,10.91
2022-12-24T10:56:05.543Z,11.07
2022-12-24T10:58:34.865Z,11.35
2022-12-24T11:01:04.261Z,11.89
2022-12-24T11:03:35.475Z,12.06
2022-12-24T11:06:21.360Z,12.09
2022-12-24T11:08:50.185Z,12.14
2022-12-24T11:11:20.896Z,12.39
2022-12-24T11:13:51.961Z,12.57
2022-12-24T11:16:32.378Z,13.05
2022-12-24T11:19:03.989Z,13.18
2022-12-24T11:21:39.382Z,13.01
2022-12-24T11:24:13.347Z,12.97
2022-12-24T11:26:43.413Z,13.23
2022-12-24T11:29:17.155Z,13.18
2022-12-24T11:31:47.073Z,13.16
2022-12-24T11:34:32.957Z,13.08
2022-12-24T11:37:21.411Z,13.02
2022-12-24T11:39:55.624Z,13.25
2022-12-24T11:42:44.483Z,13.11
2022-12-24T11:45:20.434Z,13.27
2022-12-24T11:47:49.085Z,13.00
2022-12-24T11:50:28.718Z,12.85
2022-12-24T11:53:21.262Z,12.88
2022-12-24T11:55:52.765Z,12.65
2022-12-24T11:58:46.211Z,12.53
2022-12-24T12:01:34.360Z,12.38
2022-12-24T12:04:11.015Z,12.53
2022-12-24T12:07:02.888Z,12.56
2022-12-24T12:09:40.720Z,12.65
2022-12-24T12:12:24.452Z,12.53
2022-12-24T12:15:03.370Z,12.42
2022-12-24T12:17:40.597Z,12.29
2022-12-24T12:20:14.698Z,12.32
2022-12-24T12:22:59.362Z,12.15
2022-12-24T12:25:53.951Z,12.19
2022-12-24T12:28:34.340Z,12.06
2022-12-24T12:31:16.358Z,12.13
2022-12-24T12:34:13.889Z,12.06
2022-12-24T12:37:01.311Z,11.96
2022-12-24T12:39:31.837Z,11.99
2022-12-24T12:42:08.209Z,11.86
2022-12-24T12:45:00.527Z,11.81
2022-12-24T12:47:47.818Z,11.69
2022-12-24T12:50:37.019Z,11.78
2022-12-24T12:53:05.299Z,11.64
2022-12-24T12:55:45.503Z,11.54
2022-12-24T12:58:23.793Z,11.53
2022-12-24T13:00:56.041Z,11.71
2022-12-24T13:04:08.982Z,11.77
2022-12-24T13:07:13.889Z,11.69
2022-12-24T13:10:01.036Z,11.56
2022-12-24T13:12:58.654Z,11.71
2022-12-24T13:15:27.300Z,11.58
2022-12-24T13:18:27.758Z,11.28
2022-12-24T13:20:56.361Z,11.45
2022-12-24T13:23:27.712Z,11.24
2022-12-24T13:25:58.748Z,11.30
2022-12-24T13:28:26.851Z,11.27
2022-12-24T13:31:19.910Z,11.20
2022-12-24T13:33:50.447Z,11.19
2022-12-24T13:36:20.274Z,11.11
2022-12-24T13:38:57.894Z,11.13
2022-12-24T13:41:38.246Z,11.10
2022-12-24T13:44:07.448Z,10.92
2022-12-24T13:47:00.026Z,10.79
2022-12-24T13:49:33.723Z,10.65
2022-12-24T13:52:11.376Z,10.60
2022-12-24T13:54:43.465Z,10.59
2022-12-24T13:57:36.458Z,10.73
2022-12-24T14:00:22.966Z,10.60
2022-12-24T14:03:03.450Z,10.70
2022-12-24T14:05:43.109Z,10.55
2022-12-24T14:08:24.710Z,10.50
2022-12-24T14:11:12.767Z,10.24
2022-12-24T14:13:41.033Z,10.32
2022-12-24T14:16:32.372Z,10.25
2022-12-24T14:19:18.461Z,10.26
2022-12-24T14:22:01.600Z,10.17
2022-12-24T14:24:41.661Z,9.98
2022-12-24T14:27:47.492Z,10.05
2022-12-24T14:30:21.149Z,10.17
2022-12-24T14:32:51.129Z,10.04
2022-12-24T14:35:27.830Z,10.00
2022-12-24T14:38:00.496Z,9.93
2022-12-24T14:40:35.769Z,9.91
2022-12-24T14:43:09.581Z,9.82
2022-12-24T14:45:42.997Z,9.93
2022-12-24T14:48:20.726Z,9.80
2022-12-24T14:51:10.742Z,9.77
2022-12-24T14:54:05.811Z,9.93
2022-12-24T14:56:34.301Z,9.75
2022-12-24T14:59:17.915Z,9.59
2022-12-24T15:01:47.177Z,9.76
2022-12-24T15:04:18.021Z,9.82
2022-12-24T15:06:53.350Z,9.50
2022-12-24T15:09:27.696Z,9.46
2022-12-24T15:12:00.275Z,9.22
2022-12-24T15:14:30.294Z,9.07
2022-12-24T15:17:04.211Z,8.96
2022-12-24T15:19:36.735Z,8.91
2022-12-24T15:22:11.131Z,9.08
2022-12-24T15:24:47.450Z,8.84
2022-12-24T15:27:23.274Z,8.73
2022-12-24T15:29:55.871Z,8.63
2022-12-24T15:32:24.676Z,8.81
2022-12-24T15:34:55.414Z,9.12
2022-12-24T15:37:38.171Z,9.15
2022-12-24T15:40:09.547Z,9.04
2022-12-24T15:42:42.549Z,8.82
2022-12-24T15:45:27.294Z,8.97
2022-12-24T15:47:58.115Z,9.06
2022-12-24T15:50:31.249Z,9.10
2022-12-24T15:53:20.481Z,9.34
2022-12-24T15:56:04.117Z,9.27
2022-12-24T15:58:43.433Z,9.39
2022-12-24T16:01:15.741Z,9.22
2022-12-24T16:03:50.428Z,9.04
2022-12-24T16:06:23.267Z,9.22
2022-12-24T16:08:52.117Z,8.88
2022-12-24T16:11:28.468Z,8.65
2022-12-24T16:14:02.896Z,8.39
2022-12-24T16:16:38.504Z,5.84
2022-12-24T16:19:15.739Z,8.07
2022-12-24T16:21:44.439Z,8.37
2022-12-24T16:24:27.395Z,8.13
2022-12-24T16:26:56.551Z,8.29
2022-12-24T16:29:25.261Z,8.30
2022-12-24T16:31:56.236Z,8.28
2022-12-24T16:34:28.562Z,8.23
2022-12-24T16:36:57.846Z,8.02
2022-12-24T16:39:31.200Z,7.97
2022-12-24T16:42:20.376Z,8.01
2022-12-24T16:44:49.125Z,7.85
2022-12-24T16:47:32.398Z,7.89
2022-12-24T16:50:07.281Z,7.71
2022-12-24T16:52:35.582Z,7.78
2022-12-24T16:55:04.342Z,7.66
2022-12-24T16:57:36.858Z,7.46
2022-12-24T17:00:09.207Z,7.36
2022-12-24T17:02:37.520Z,7.27
2022-12-24T17:05:06.560Z,7.17
2022-12-24T17:07:39.606Z,7.38
2022-12-24T17:10:14.340Z,7.22
2022-12-24T17:12:43.201Z,7.44
2022-12-24T17:15:11.928Z,7.55
2022-12-24T17:17:40.275Z,7.60
2022-12-24T17:20:09.333Z,7.48
2022-12-24T17:22:38.331Z,7.30
2022-12-24T17:25:07.138Z,7.20
2022-12-24T17:27:35.448Z,7.18
2022-12-24T17:30:07.594Z,7.25
2022-12-24T17:32:37.569Z,7.21
2022-12-24T17:35:06.779Z,7.36
2022-12-24T17:37:34.873Z,7.59
2022-12-24T17:40:03.661Z,7.52
2022-12-24T17:42:32.430Z,7.37
2022-12-24T17:45:01.017Z,7.44
2022-12-24T17:47:30.195Z,7.30
2022-12-24T17:49:58.495Z,7.19
2022-12-24T17:52:26.682Z,7.42
2022-12-24T17:54:54.966Z,7.19
2022-12-24T17:57:23.363Z,7.05
2022-12-24T17:59:52.068Z,6.95
2022-12-24T18:02:20.620Z,6.94
2022-12-24T18:04:49.444Z,6.97
2022-12-24T18:07:17.662Z,7.13
2022-12-24T18:09:46.148Z,7.39
2022-12-24T18:12:14.652Z,7.29
2022-12-24T18:14:43.360Z,7.48
2022-12-24T18:17:11.425Z,7.63
2022-12-24T18:19:40.478Z,7.83
2022-12-24T18:22:08.609Z,7.75
2022-12-24T18:24:37.015Z,7.80
2022-12-24T18:27:05.591Z,7.86
2022-12-24T18:29:33.688Z,8.07
2022-12-24T18:32:01.947Z,8.03
2022-12-24T18:34:30.244Z,8.24
2022-12-24T18:36:58.335Z,8.27
2022-12-24T18:39:26.600Z,8.38
2022-12-24T18:41:54.998Z,8.33
2022-12-24T18:44:25.630Z,8.37
2022-12-24T18:46:54.190Z,8.42
2022-12-24T18:49:22.858Z,8.34
2022-12-24T18:51:50.948Z,8.37
2022-12-24T18:54:19.456Z,8.33
2022-12-24T18:56:51.463Z,8.23
2022-12-24T18:59:19.845Z,8.11
2022-12-24T19:01:49.867Z,8.21
2022-12-24T19:04:18.379Z,8.24
2022-12-24T19:06:52.748Z,8.29
2022-12-24T19:09:22.677Z,8.23
2022-12-24T19:11:51.009Z,8.28
2022-12-24T19:14:20.361Z,8.44
2022-12-24T19:16:48.804Z,8.64
2022-12-24T19:19:18.798Z,8.65
2022-12-24T19:21:46.827Z,8.58
2022-12-24T19:24:15.439Z,8.68
2022-12-24T19:26:43.463Z,8.81
2022-12-24T19:29:11.656Z,8.82
2022-12-24T19:31:44.229Z,8.74
2022-12-24T19:34:12.800Z,8.65
2022-12-24T19:36:41.141Z,8.53
2022-12-24T19:39:09.734Z,8.34
2022-12-24T19:41:38.280Z,8.34
2022-12-24T19:44:06.873Z,8.25
2022-12-24T19:46:36.773Z,8.15
2022-12-24T19:49:10.475Z,8.26
2022-12-24T19:51:39.514Z,8.30
2022-12-24T19:54:13.369Z,8.27
2022-12-24T19:56:45.256Z,8.03
2022-12-24T19:59:13.386Z,8.10
2022-12-24T20:01:41.714Z,8.29
2022-12-24T20:04:10.590Z,8.24
2022-12-24T20:06:39.451Z,8.20
2022-12-24T20:09:08.405Z,8.13
2022-12-24T20:11:37.207Z,8.27
2022-12-24T20:14:06.354Z,8.25
2022-12-24T20:16:35.655Z,8.15
2022-12-24T20:19:06.673Z,8.28
2022-12-24T20:21:35.508Z,8.26
2022-12-24T20:24:04.331Z,8.19
2022-12-24T20:26:33.303Z,8.32
2022-12-24T20:29:09.972Z,8.39
2022-12-24T20:31:41.233Z,8.36
2022-12-24T20:34:11.114Z,8.19
2022-12-24T20:36:39.652Z,8.16
2022-12-24T20:39:08.011Z,8.29
2022-12-24T20:41:36.482Z,8.19
2022-12-24T20:44:05.006Z,8.21
2022-12-24T20:46:33.603Z,8.28
2022-12-24T20:49:01.955Z,8.04
2022-12-24T20:51:31.302Z,7.83
2022-12-24T20:54:01.188Z,7.71
2022-12-24T20:56:31.118Z,7.89
2022-12-24T20:59:01.489Z,8.00
2022-12-24T21:01:30.637Z,8.04
2022-12-24T21:04:04.569Z,7.94
2022-12-24T21:06:34.460Z,7.83
2022-12-24T21:09:04.052Z,7.66
2022-12-24T21:11:50.851Z,7.95
2022-12-24T21:14:25.148Z,7.90
2022-12-24T21:16:55.319Z,7.60
2022-12-24T21:19:25.495Z,7.90
2022-12-24T21:21:53.577Z,7.96
2022-12-24T21:24:21.766Z,7.68
2022-12-24T21:26:50.213Z,7.64
2022-12-24T21:29:18.367Z,7.61
2022-12-24T21:31:47.678Z,7.62
2022-12-24T21:34:16.209Z,7.74
2022-12-24T21:36:45.680Z,7.60
2022-12-24T21:39:13.796Z,7.69
2022-12-24T21:41:42.365Z,7.62
2022-12-24T21:44:10.404Z,7.55
2022-12-24T21:46:38.690Z,7.63
2022-12-24T21:49:28.439Z,7.62
2022-12-24T21:51:56.577Z,7.73
2022-12-24T21:54:30.557Z,7.56
2022-12-24T21:57:22.811Z,7.42
2022-12-24T21:59:56.785Z,7.57
2022-12-24T22:02:28.995Z,7.39
2022-12-24T22:04:57.635Z,7.22
2022-12-24T22:07:46.833Z,7.21
2022-12-24T22:10:33.683Z,6.99
2022-12-24T22:13:07.403Z,6.85
2022-12-24T22:15:41.648Z,7.29
2022-12-24T22:18:10.148Z,7.43
2022-12-24T22:20:39.760Z,7.48
2022-12-24T22:23:08.328Z,7.47
2022-12-24T22:25:36.643Z,7.46
2022-12-24T22:28:05.594Z,7.48
2022-12-24T22:30:43.348Z,7.26
2022-12-24T22:33:12.119Z,6.91
2022-12-24T22:35:41.251Z,6.73
2022-12-24T22:38:09.718Z,6.69
2022-12-24T22:40:41.243Z,6.80
2022-12-24T22:43:09.836Z,6.65
2022-12-24T22:45:39.512Z,6.48
2022-12-24T22:48:08.149Z,6.61
2022-12-24T22:50:39.108Z,6.59
2022-12-24T22:53:07.618Z,6.82
2022-12-24T22:55:35.664Z,6.89
2022-12-24T22:58:04.313Z,6.71
2022-12-24T23:00:44.637Z,6.80
2022-12-24T23:03:13.033Z,6.76
2022-12-24T23:05:41.629Z,6.71
2022-12-24T23:08:11.489Z,6.57
2022-12-24T23:10:40.843Z,6.64
2022-12-24T23:13:31.805Z,6.41
2022-12-24T23:16:04.994Z,6.23
2022-12-24T23:18:33.931Z,6.09
2022-12-24T23:21:05.470Z,6.06
2022-12-24T23:23:37.035Z,6.05
2022-12-24T23:26:12.327Z,5.87
2022-12-24T23:28:43.578Z,5.83
2022-12-24T23:31:13.026Z,5.81
2022-12-24T23:33:41.702Z,5.94
2022-12-24T23:36:10.231Z,6.09
2022-12-24T23:38:40.021Z,6.15
2022-12-24T23:41:09.692Z,6.08
2022-12-24T23:43:38.168Z,6.06
2022-12-24T23:46:06.546Z,6.07
2022-12-24T23:48:35.080Z,6.18
2022-12-24T23:51:06.137Z,6.12
2022-12-24T23:53:34.889Z,6.15
2022-12-24T23:56:04.626Z,6.38
2022-12-24T23:58:33.211Z,6.60
